Time;durP1;ratioP1;P1;durP2;ratioP2;P2;SDS_P1;SDS_P2;PMS_P1;PMS_P2;Temp;Humidity;BMP_temperature;BMP_pressure;BME280_temperature;BME280_humidity;BME280_pressure;Samples;Min_cycle;Max_cycle;Signal;HPM_P1;HPM_P2
2022/03/23 00:01:40;;;;;;;25.33;16.53;;;3.10;1.00;;;;;;5093147;28;20198;-68
2022/03/23 00:04:07;;;;;;;25.03;15.00;;;3.20;46.80;;;;;;5093995;28;20700;-68
2022/03/23 00:06:34;;;;;;;25.00;15.77;;;3.20;4.20;;;;;;5093349;28;20204;-69
2022/03/23 00:09:01;;;;;;;28.47;16.57;;;3.20;1.00;;;;;;5093073;28;20578;-68
2022/03/23 00:11:28;;;;;;;28.00;15.57;;;3.20;1.00;;;;;;5093139;28;20221;-69
2022/03/23 00:13:55;;;;;;;30.37;15.40;;;3.20;1.00;;;;;;5093254;28;20207;-68
2022/03/23 00:16:24;;;;;;;26.90;15.37;;;2.90;1.00;;;;;;5093052;28;20569;-68
2022/03/23 00:18:50;;;;;;;26.57;16.23;;;2.40;1.00;;;;;;5093119;28;20258;-69
2022/03/23 00:21:17;;;;;;;26.97;14.93;;;2.30;1.00;;;;;;5093083;28;20198;-68
2022/03/23 00:23:44;;;;;;;26.30;15.03;;;2.50;99.90;;;;;;5093703;28;20217;-68
2022/03/23 00:26:12;;;;;;;24.90;15.33;;;2.80;99.90;;;;;;5092945;28;20220;-68
2022/03/23 00:28:39;;;;;;;26.70;15.10;;;2.60;1.00;;;;;;5092246;28;20201;-68
2022/03/23 00:31:07;;;;;;;27.27;16.00;;;2.40;98.50;;;;;;5093127;28;20232;-69
2022/03/23 00:33:35;;;;;;;29.47;16.83;;;2.30;99.90;;;;;;5093272;28;20284;-68
2022/03/23 00:36:03;;;;;;;29.47;15.50;;;2.10;1.00;;;;;;5092320;28;20204;-68
2022/03/23 00:38:30;;;;;;;25.20;14.87;;;2.20;1.00;;;;;;5091997;28;20224;-69
2022/03/23 00:40:57;;;;;;;27.63;15.57;;;2.20;99.90;;;;;;5092835;28;20205;-68
2022/03/23 00:43:24;;;;;;;27.50;16.97;;;2.30;99.90;;;;;;5093170;28;20555;-68
2022/03/23 00:45:51;;;;;;;24.60;15.37;;;2.10;99.90;;;;;;5092934;28;20206;-69
2022/03/23 00:48:18;;;;;;;28.70;16.67;;;2.10;1.00;;;;;;5092417;28;20670;-68
2022/03/23 00:50:46;;;;;;;27.07;15.20;;;2.10;1.00;;;;;;5092316;28;20200;-68
2022/03/23 00:53:13;;;;;;;26.20;15.70;;;2.30;1.00;;;;;;5072751;28;20569;-68
2022/03/23 00:55:41;;;;;;;26.07;15.13;;;2.20;1.00;;;;;;5088318;28;20200;-68
2022/03/23 00:58:08;;;;;;;26.00;15.73;;;1.90;1.00;;;;;;5091959;28;20202;-68
2022/03/23 01:00:35;;;;;;;26.00;16.00;;;2.10;1.00;;;;;;5092356;28;20201;-68
2022/03/23 01:03:04;;;;;;;27.33;15.23;;;2.20;1.00;;;;;;5092660;28;20200;-69
2022/03/23 01:05:30;;;;;;;29.33;16.30;;;2.40;1.00;;;;;;5092388;28;20223;-68
2022/03/23 01:07:59;;;;;;;28.87;16.00;;;2.50;1.00;;;;;;5091725;28;20198;-68
2022/03/23 01:10:26;;;;;;;28.33;15.70;;;2.50;99.90;;;;;;5092977;28;20212;-68
2022/03/23 01:12:54;;;;;;;25.67;15.37;;;2.40;99.90;;;;;;5091775;28;20217;-68
2022/03/23 01:15:22;;;;;;;28.37;15.43;;;2.10;1.00;;;;;;5091999;28;20205;-69
2022/03/23 01:17:49;;;;;;;25.10;14.60;;;2.00;1.00;;;;;;5092285;28;20197;-68
2022/03/23 01:20:19;;;;;;;28.10;14.07;;;1.90;1.00;;;;;;5092105;28;20198;-75
2022/03/23 01:22:47;;;;;;;27.40;14.83;;;1.60;1.00;;;;;;5084758;28;20194;-75
2022/03/23 01:25:15;;;;;;;23.00;14.30;;;1.30;99.90;;;;;;5092482;28;20200;-75
2022/03/23 01:27:44;;;;;;;26.83;14.10;;;1.70;1.00;;;;;;5091741;28;20649;-74
2022/03/23 01:30:13;;;;;;;27.83;16.23;;;1.60;99.90;;;;;;5092402;28;20213;-75
2022/03/23 01:32:41;;;;;;;29.03;16.03;;;1.70;99.90;;;;;;5091992;28;20221;-75
2022/03/23 01:35:10;;;;;;;26.20;14.67;;;1.90;99.90;;;;;;5091644;28;20200;-74
2022/03/23 01:37:37;;;;;;;25.23;15.47;;;1.80;65.20;;;;;;5091238;28;20208;-75
2022/03/23 01:40:06;;;;;;;26.23;14.97;;;1.70;1.00;;;;;;5092082;28;20229;-75
2022/03/23 01:42:34;;;;;;;24.50;15.13;;;1.60;1.00;;;;;;5094644;28;20271;-75
2022/03/23 01:45:01;;;;;;;26.47;15.67;;;1.70;99.90;;;;;;5095283;28;20198;-75
2022/03/23 01:47:28;;;;;;;26.53;15.10;;;1.80;73.50;;;;;;5094124;28;20696;-75
2022/03/23 01:49:56;;;;;;;25.80;15.20;;;1.90;99.90;;;;;;5094593;28;20198;-75
2022/03/23 01:52:25;;;;;;;29.17;15.53;;;2.10;1.00;;;;;;5083812;28;20228;-75
2022/03/23 01:54:52;;;;;;;28.03;15.03;;;2.00;99.90;;;;;;5095366;28;20672;-75
2022/03/23 01:57:21;;;;;;;27.37;15.57;;;2.10;99.90;;;;;;5093686;28;20226;-75
2022/03/23 01:59:50;;;;;;;25.73;14.70;;;2.00;1.00;;;;;;5094889;28;20547;-75
2022/03/23 02:02:17;;;;;;;27.50;15.10;;;1.80;1.00;;;;;;5094410;28;20203;-74
2022/03/23 02:04:44;;;;;;;26.63;14.70;;;1.70;1.00;;;;;;5094251;28;20194;-75
2022/03/23 02:07:11;;;;;;;28.27;15.93;;;1.80;1.00;;;;;;5094134;28;20201;-75
2022/03/23 02:09:39;;;;;;;26.57;15.57;;;1.70;1.00;;;;;;5094634;28;20656;-75
2022/03/23 02:12:08;;;;;;;28.70;16.07;;;1.70;1.00;;;;;;5094661;28;20244;-75
2022/03/23 02:14:35;;;;;;;26.33;15.30;;;1.70;1.00;;;;;;5094544;28;20555;-74
2022/03/23 02:17:05;;;;;;;27.70;15.17;;;1.80;1.00;;;;;;5094715;28;20220;-75
2022/03/23 02:19:32;;;;;;;26.73;15.60;;;1.80;1.00;;;;;;5094152;28;20225;-75
2022/03/23 02:22:00;;;;;;;26.87;15.63;;;1.80;98.10;;;;;;5093991;28;20222;-75
2022/03/23 02:24:29;;;;;;;30.10;16.53;;;1.80;99.90;;;;;;5094867;28;20556;-75
2022/03/23 02:26:58;;;;;;;27.47;15.93;;;1.80;1.00;;;;;;5093897;28;20197;-76
2022/03/23 02:29:29;;;;;;;25.13;15.97;;;1.60;1.00;;;;;;5094084;28;20201;-75
2022/03/23 02:31:57;;;;;;;26.60;14.77;;;1.60;1.00;;;;;;5094253;28;20225;-75
2022/03/23 02:34:25;;;;;;;26.03;16.37;;;1.70;99.90;;;;;;5094432;28;20632;-75
2022/03/23 02:36:52;;;;;;;27.00;15.50;;;1.70;1.00;;;;;;5094444;28;20201;-75
2022/03/23 02:39:21;;;;;;;25.33;15.63;;;1.60;99.90;;;;;;5056030;28;1075151;-74
2022/03/23 02:41:48;;;;;;;24.57;15.37;;;1.50;99.90;;;;;;5094815;28;20407;-75
2022/03/23 02:44:15;;;;;;;33.80;14.73;;;1.50;11.20;;;;;;5095083;28;20555;-75
2022/03/23 02:46:42;;;;;;;25.43;14.80;;;1.40;1.00;;;;;;5094632;28;20201;-75
2022/03/23 02:49:10;;;;;;;25.90;14.93;;;1.30;1.00;;;;;;5094898;28;20206;-74
2022/03/23 02:51:37;;;;;;;26.93;14.90;;;1.10;1.00;;;;;;5094279;28;20194;-75
2022/03/23 03:02:36;;;;;;;26.73;15.33;;;1.10;99.90;;;;;;5094633;28;20285;-74
2022/03/23 03:05:03;;;;;;;25.93;15.63;;;0.80;1.00;;;;;;5094997;28;20213;-74
2022/03/23 03:08:44;;;;;;;26.83;14.73;;;0.70;1.00;;;;;;5093941;28;20197;-74
2022/03/23 03:10:18;;;;;;;26.63;15.27;;;0.50;1.00;;;;;;5092846;28;20559;-74
2022/03/23 03:12:46;;;;;;;27.37;16.67;;;0.60;99.90;;;;;;5094684;28;20229;-74
2022/03/23 03:15:14;;;;;;;25.97;15.80;;;0.60;99.90;;;;;;5094502;28;20212;-75
2022/03/23 03:17:41;;;;;;;27.43;16.20;;;0.70;99.90;;;;;;5094057;28;20205;-74
2022/03/23 03:20:09;;;;;;;30.17;16.00;;;0.60;99.90;;;;;;5094170;28;20204;-74
2022/03/23 03:22:38;;;;;;;26.33;16.17;;;0.60;99.90;;;;;;5094359;28;20197;-74
2022/03/23 03:25:06;;;;;;;27.13;16.03;;;0.80;1.00;;;;;;5094339;28;20197;-75
2022/03/23 03:27:35;;;;;;;28.40;16.63;;;0.80;1.00;;;;;;5093709;28;20263;-75
2022/03/23 03:30:05;;;;;;;28.20;16.07;;;0.80;99.90;;;;;;5094154;28;20224;-74
2022/03/23 03:32:32;;;;;;;27.00;15.60;;;0.90;99.90;;;;;;5093888;28;20218;-74
2022/03/23 03:34:59;;;;;;;28.13;15.77;;;0.80;1.00;;;;;;5094680;28;20660;-74
2022/03/23 03:37:26;;;;;;;28.60;16.33;;;0.90;99.90;;;;;;5093848;28;20212;-74
2022/03/23 03:39:52;;;;;;;26.83;16.30;;;1.10;99.90;;;;;;5088692;28;20217;-74
2022/03/23 03:42:19;;;;;;;28.10;17.00;;;1.20;1.00;;;;;;5093880;28;20201;-74
2022/03/23 03:44:51;;;;;;;27.37;15.07;;;0.80;99.90;;;;;;5093354;28;20202;-75
2022/03/23 03:47:19;;;;;;;27.17;15.73;;;0.80;1.00;;;;;;5093599;28;20651;-75
2022/03/23 03:49:47;;;;;;;28.67;15.80;;;0.80;1.00;;;;;;5093672;28;20554;-74
2022/03/23 03:52:14;;;;;;;28.17;14.60;;;0.60;99.90;;;;;;5093545;28;20233;-75
2022/03/23 03:54:41;;;;;;;24.17;14.77;;;0.40;99.90;;;;;;5093661;28;20648;-75
2022/03/23 03:57:08;;;;;;;24.97;14.50;;;0.30;1.00;;;;;;5092717;28;20198;-74
2022/03/23 03:59:35;;;;;;;25.83;14.93;;;0.40;1.00;;;;;;5093707;28;20213;-75
2022/03/23 04:02:02;;;;;;;25.30;14.87;;;0.40;1.00;;;;;;5093722;28;20217;-74
2022/03/23 04:04:31;;;;;;;25.27;15.30;;;0.50;1.00;;;;;;5093053;28;20207;-75
2022/03/23 04:06:58;;;;;;;27.87;15.70;;;0.50;1.00;;;;;;5093318;28;20208;-75
2022/03/23 04:09:25;;;;;;;25.87;15.67;;;0.40;1.00;;;;;;5092741;28;20210;-74
2022/03/23 04:11:51;;;;;;;25.60;14.30;;;0.40;1.00;;;;;;5093339;28;20822;-74
2022/03/23 04:14:18;;;;;;;28.83;15.73;;;0.20;99.90;;;;;;5093655;28;20227;-74
2022/03/23 04:16:45;;;;;;;28.37;15.90;;;0.00;1.00;;;;;;5092882;28;20197;-74
2022/03/23 04:19:12;;;;;;;30.23;15.53;;;0.10;1.00;;;;;;5091403;28;20215;-75
2022/03/23 04:21:40;;;;;;;25.70;14.70;;;0.10;1.00;;;;;;5093609;28;20292;-75
2022/03/23 04:24:07;;;;;;;30.37;16.90;;;0.10;1.00;;;;;;5093535;28;20201;-74
2022/03/23 04:26:34;;;;;;;31.50;17.40;;;0.30;13.90;;;;;;5093642;28;20703;-74
2022/03/23 04:29:01;;;;;;;29.50;17.70;;;0.30;1.00;;;;;;5092896;28;20205;-75
2022/03/23 04:31:28;;;;;;;29.00;15.67;;;0.20;99.90;;;;;;5093666;28;20586;-74
2022/03/23 04:33:55;;;;;;;28.60;16.47;;;0.40;1.00;;;;;;5093310;28;20623;-74
2022/03/23 04:36:22;;;;;;;27.50;15.80;;;0.60;1.00;;;;;;5092765;28;20209;-74
2022/03/23 04:38:51;;;;;;;28.57;15.27;;;0.70;1.00;;;;;;5092873;28;20212;-74
2022/03/23 04:41:17;;;;;;;26.27;15.10;;;0.30;1.00;;;;;;5093000;28;20182;-75
2022/03/23 04:43:44;;;;;;;24.97;14.53;;;0.50;1.00;;;;;;5093378;28;20305;-75
2022/03/23 04:46:11;;;;;;;31.47;15.00;;;0.50;99.90;;;;;;5093483;28;20868;-76
2022/03/23 04:48:38;;;;;;;25.17;15.17;;;0.30;99.90;;;;;;5092346;28;20521;-76
2022/03/23 04:51:05;;;;;;;26.17;15.50;;;0.60;1.00;;;;;;5092647;28;20212;-75
2022/03/23 04:53:32;;;;;;;25.73;15.03;;;0.50;1.00;;;;;;5092882;28;20282;-76
2022/03/23 04:56:01;;;;;;;25.80;14.33;;;0.30;1.00;;;;;;5093008;28;20204;-76
2022/03/23 04:58:29;;;;;;;27.43;15.40;;;0.00;1.00;;;;;;5092544;28;20209;-76
2022/03/23 05:00:56;;;;;;;29.47;15.03;;;-0.20;1.00;;;;;;5093076;28;20202;-76
2022/03/23 05:03:25;;;;;;;28.53;14.97;;;-0.30;1.00;;;;;;5092127;28;20227;-75
2022/03/23 05:05:52;;;;;;;30.87;16.17;;;-0.20;99.90;;;;;;5091979;28;20206;-75
2022/03/23 05:08:19;;;;;;;31.10;15.40;;;0.00;99.90;;;;;;5091516;28;20300;-75
2022/03/23 05:10:46;;;;;;;32.10;16.77;;;0.00;99.90;;;;;;5092213;28;20205;-75
2022/03/23 05:13:14;;;;;;;29.27;16.17;;;0.20;99.90;;;;;;5091339;28;20699;-76
2022/03/23 05:15:41;;;;;;;28.73;16.23;;;0.20;1.00;;;;;;5092125;28;20217;-76
2022/03/23 05:18:08;;;;;;;30.00;16.53;;;0.20;1.00;;;;;;5091632;28;20205;-76
2022/03/23 05:20:35;;;;;;;29.50;16.70;;;0.00;99.90;;;;;;5091455;28;20197;-76
2022/03/23 05:23:02;;;;;;;31.70;17.13;;;0.30;1.00;;;;;;5092222;28;20205;-75
2022/03/23 05:25:30;;;;;;;29.00;16.77;;;0.40;1.00;;;;;;5092351;28;20205;-76
2022/03/23 05:27:57;;;;;;;29.43;16.90;;;0.40;1.00;;;;;;5090604;28;20205;-75
2022/03/23 05:30:25;;;;;;;27.80;15.97;;;0.50;99.90;;;;;;5091701;28;20389;-75
2022/03/23 05:32:52;;;;;;;26.60;15.57;;;0.20;1.00;;;;;;5091767;28;20221;-76
2022/03/23 05:35:18;;;;;;;27.23;15.43;;;0.10;1.00;;;;;;5091709;28;20209;-75
2022/03/23 05:37:45;;;;;;;28.90;16.10;;;0.10;97.50;;;;;;5090166;28;20198;-75
2022/03/23 05:40:13;;;;;;;28.63;16.30;;;0.40;99.90;;;;;;5091830;28;20221;-75
2022/03/23 05:42:41;;;;;;;30.63;17.17;;;0.40;90.00;;;;;;5092172;28;20201;-76
2022/03/23 05:45:09;;;;;;;28.30;15.77;;;0.70;99.90;;;;;;5091327;28;20209;-76
2022/03/23 05:47:38;;;;;;;32.47;16.97;;;1.10;94.40;;;;;;5091577;28;20213;-76
2022/03/23 05:50:06;;;;;;;28.67;16.73;;;1.10;1.00;;;;;;5090780;28;20206;-76
2022/03/23 05:52:33;;;;;;;29.97;16.83;;;1.00;1.00;;;;;;5091370;28;20205;-76
2022/03/23 05:55:01;;;;;;;30.40;16.10;;;1.00;99.90;;;;;;5092277;28;20198;-75
2022/03/23 05:57:28;;;;;;;25.37;15.30;;;0.60;1.00;;;;;;5090959;28;20236;-76
2022/03/23 05:59:55;;;;;;;26.23;15.43;;;0.50;99.90;;;;;;5092240;28;20202;-75
2022/03/23 06:02:21;;;;;;;28.30;15.87;;;0.70;1.00;;;;;;5091849;28;20578;-76
2022/03/23 06:04:50;;;;;;;29.50;16.00;;;1.00;1.00;;;;;;5091550;28;20198;-76
2022/03/23 06:07:17;;;;;;;24.93;14.60;;;1.40;99.90;;;;;;5091360;28;20202;-76
2022/03/23 06:09:44;;;;;;;27.37;15.93;;;2.00;99.90;;;;;;5091982;28;20210;-76
2022/03/23 06:12:12;;;;;;;27.33;15.80;;;2.90;1.00;;;;;;5091762;28;20210;-76
2022/03/23 06:14:42;;;;;;;27.03;15.73;;;3.10;1.00;;;;;;5091080;28;20218;-76
2022/03/23 06:17:09;;;;;;;28.10;16.80;;;2.90;1.00;;;;;;5091071;28;20193;-76
2022/03/23 06:19:36;;;;;;;27.93;16.63;;;2.70;99.90;;;;;;5090497;28;20644;-76
2022/03/23 06:22:04;;;;;;;26.63;16.83;;;2.60;99.90;;;;;;5091289;28;20213;-76
2022/03/23 06:24:31;;;;;;;28.50;17.50;;;2.50;99.90;;;;;;5092056;28;20201;-76
2022/03/23 06:26:58;;;;;;;26.27;16.80;;;2.60;1.00;;;;;;5092850;28;20656;-76
2022/03/23 06:29:25;;;;;;;28.90;16.53;;;2.80;1.00;;;;;;5094295;28;20205;-76
2022/03/23 06:31:52;;;;;;;26.10;15.67;;;3.20;1.00;;;;;;5095269;28;20216;-76
2022/03/23 06:34:19;;;;;;;27.80;15.53;;;3.80;99.90;;;;;;5095293;28;20225;-76
2022/03/23 06:36:45;;;;;;;26.23;16.30;;;4.30;99.90;;;;;;5094419;28;20573;-76
2022/03/23 06:39:14;;;;;;;25.13;17.03;;;4.50;1.00;;;;;;5093926;28;20214;-76
2022/03/23 06:41:40;;;;;;;25.63;16.70;;;4.60;99.90;;;;;;5094326;28;20207;-76
2022/03/23 06:44:07;;;;;;;26.40;16.30;;;4.30;99.90;;;;;;5095126;28;20578;-76
2022/03/23 06:46:34;;;;;;;24.37;15.97;;;4.00;1.00;;;;;;5095274;28;20607;-76
2022/03/23 06:49:01;;;;;;;24.90;16.90;;;4.50;1.00;;;;;;5093924;28;20204;-76
2022/03/23 06:51:28;;;;;;;26.77;17.37;;;4.90;99.90;;;;;;5093936;28;20198;-76
2022/03/23 06:53:55;;;;;;;25.00;16.67;;;4.60;99.90;;;;;;5095291;28;20827;-76
2022/03/23 06:56:23;;;;;;;26.03;17.53;;;4.80;99.90;;;;;;5094060;28;20318;-76
2022/03/23 06:58:50;;;;;;;25.63;16.77;;;4.70;8.30;;;;;;5094716;28;20560;-76
2022/03/23 07:01:17;;;;;;;24.93;16.83;;;4.90;99.90;;;;;;5094103;28;20209;-76
2022/03/23 07:03:43;;;;;;;26.17;17.37;;;4.80;1.00;;;;;;5095166;28;20554;-76
2022/03/23 07:06:10;;;;;;;27.63;17.77;;;4.60;1.00;;;;;;5094348;28;20206;-76
2022/03/23 07:11:22;;;;;;;28.60;17.20;;;4.80;1.00;;;;;;5094646;28;20678;-76
2022/03/23 07:13:49;;;;;;;24.83;16.70;;;4.80;1.00;;;;;;5093475;28;20225;-76
2022/03/23 07:16:16;;;;;;;27.97;17.10;;;4.80;1.00;;;;;;5094075;28;20202;-76
2022/03/23 07:18:43;;;;;;;24.77;17.17;;;5.50;1.00;;;;;;5092952;28;20202;-75
2022/03/23 07:21:10;;;;;;;26.77;16.97;;;6.10;99.90;;;;;;5093796;28;20202;-76
2022/03/23 07:23:37;;;;;;;26.77;17.73;;;6.40;1.00;;;;;;5094205;28;20233;-76
2022/03/23 07:26:04;;;;;;;25.47;16.53;;;6.50;1.00;;;;;;5093966;28;20228;-76
2022/03/23 07:28:32;;;;;;;25.83;17.00;;;6.20;1.00;;;;;;5094204;28;20583;-76
2022/03/23 07:30:59;;;;;;;29.90;17.10;;;6.10;1.00;;;;;;5094184;28;20567;-76
2022/03/23 07:33:26;;;;;;;28.60;17.73;;;6.30;1.00;;;;;;5093644;28;20228;-76
2022/03/23 07:35:53;;;;;;;23.03;16.17;;;7.20;1.00;;;;;;5094052;28;20206;-76
2022/03/23 07:38:20;;;;;;;24.57;15.47;;;7.80;99.90;;;;;;5092096;28;20221;-75
2022/03/23 07:40:47;;;;;;;27.57;17.87;;;7.50;99.90;;;;;;5093951;28;20209;-76
2022/03/23 07:43:13;;;;;;;24.57;16.37;;;8.40;99.90;;;;;;5101766;28;20201;-76
2022/03/23 07:45:42;;;;;;;22.80;16.50;;;9.90;1.00;;;;;;5103543;28;20205;-77
2022/03/23 07:48:08;;;;;;;22.10;16.23;;;10.90;1.00;;;;;;5093085;28;20198;-76
2022/03/23 07:50:35;;;;;;;22.73;16.03;;;11.50;1.00;;;;;;5093316;28;20234;-76
2022/03/23 07:53:02;;;;;;;24.13;16.63;;;12.50;1.00;;;;;;5093864;28;20208;-76
2022/03/23 07:55:29;;;;;;;23.07;16.17;;;13.20;1.00;;;;;;5093474;28;20232;-76
2022/03/23 07:57:56;;;;;;;22.87;16.23;;;13.20;1.00;;;;;;5092720;28;20209;-76
2022/03/23 08:00:23;;;;;;;24.27;15.90;;;11.80;1.00;;;;;;5093901;28;20217;-76
2022/03/23 08:02:51;;;;;;;22.57;16.57;;;12.30;1.00;;;;;;5092980;28;20777;-76
2022/03/23 08:05:18;;;;;;;23.27;16.60;;;12.50;1.00;;;;;;5093706;28;20220;-76
2022/03/23 08:07:45;;;;;;;23.60;16.70;;;11.20;1.00;;;;;;5092255;28;20209;-76
2022/03/23 08:10:13;;;;;;;22.90;17.03;;;10.80;1.00;;;;;;5093649;28;20578;-70
2022/03/23 08:12:39;;;;;;;25.63;17.30;;;10.70;1.00;;;;;;5093085;28;20209;-70
2022/03/23 08:15:08;;;;;;;22.97;16.53;;;11.10;1.00;;;;;;5092981;28;20221;-70
2022/03/23 08:17:38;;;;;;;25.60;17.27;;;11.40;1.00;;;;;;5092385;28;20205;-70
2022/03/23 08:22:52;;;;;;;25.93;16.30;;;12.10;1.00;;;;;;5092667;28;20322;-70
2022/03/23 08:25:19;;;;;;;23.30;16.80;;;11.80;1.00;;;;;;5093499;28;20208;-70
2022/03/23 08:27:46;;;;;;;25.20;17.20;;;11.00;1.00;;;;;;5091807;28;20209;-70
2022/03/23 08:30:13;;;;;;;22.97;17.00;;;10.30;1.00;;;;;;5093075;28;20262;-70
2022/03/23 08:32:40;;;;;;;25.07;17.40;;;10.30;1.00;;;;;;5093284;28;20205;-70
2022/03/23 08:35:09;;;;;;;26.13;17.87;;;10.10;1.00;;;;;;5092651;28;20221;-70
2022/03/23 08:37:38;;;;;;;25.97;17.03;;;10.30;1.00;;;;;;5091164;28;20205;-70
2022/03/23 08:40:06;;;;;;;23.90;16.90;;;10.30;1.00;;;;;;5092363;28;20251;-70
2022/03/23 08:42:33;;;;;;;26.33;17.87;;;10.20;1.00;;;;;;5092117;28;20205;-70
2022/03/23 08:45:00;;;;;;;24.77;17.07;;;10.70;1.00;;;;;;5092780;28;20225;-70
2022/03/23 08:47:27;;;;;;;24.67;17.00;;;11.00;1.00;;;;;;5092488;28;20211;-70
2022/03/23 08:49:55;;;;;;;26.00;17.30;;;10.90;1.00;;;;;;5092591;28;20562;-70
2022/03/23 08:52:24;;;;;;;27.70;17.90;;;11.10;1.00;;;;;;5091915;28;20202;-70
2022/03/23 08:54:51;;;;;;;24.73;15.83;;;11.20;1.00;;;;;;5092048;28;20224;-70
2022/03/23 08:57:18;;;;;;;25.50;17.23;;;11.70;1.00;;;;;;5091197;28;20205;-70
2022/03/23 08:59:45;;;;;;;23.77;17.47;;;11.80;1.00;;;;;;5091735;28;20651;-70
2022/03/23 09:02:12;;;;;;;25.57;16.77;;;12.10;1.00;;;;;;5092092;28;20211;-70
2022/03/23 09:04:39;;;;;;;27.23;16.33;;;12.30;1.00;;;;;;5092274;28;20205;-70
2022/03/23 09:07:05;;;;;;;25.73;17.70;;;12.40;1.00;;;;;;5092357;28;20206;-70
2022/03/23 09:09:34;;;;;;;25.97;17.60;;;12.70;99.90;;;;;;5092587;28;20561;-70
2022/03/23 09:12:01;;;;;;;28.00;18.47;;;13.00;99.90;;;;;;5091305;28;20205;-70
2022/03/23 09:14:27;;;;;;;29.43;17.57;;;13.60;1.00;;;;;;5091578;28;20683;-70
2022/03/23 09:16:54;;;;;;;26.93;17.17;;;13.80;99.90;;;;;;5092752;28;20209;-70
2022/03/23 09:19:21;;;;;;;27.43;17.03;;;12.80;99.90;;;;;;5090974;28;20577;-70
2022/03/23 09:21:48;;;;;;;27.53;18.20;;;12.80;99.90;;;;;;5092174;28;20566;-70
2022/03/23 09:24:15;;;;;;;25.60;17.77;;;13.10;99.90;;;;;;5092401;28;20209;-70
2022/03/23 09:26:43;;;;;;;26.70;17.87;;;13.90;99.90;;;;;;5091561;28;20208;-70
2022/03/23 09:29:10;;;;;;;26.53;18.63;;;14.40;99.90;;;;;;5091983;28;20743;-70
2022/03/23 09:31:38;;;;;;;26.83;18.43;;;14.60;99.90;;;;;;5092174;28;20691;-71
2022/03/23 09:34:05;;;;;;;26.50;18.30;;;14.00;99.90;;;;;;5091604;28;20224;-71
2022/03/23 09:39:18;;;;;;;25.30;17.70;;;14.20;99.90;;;;;;5091635;28;20205;-70
2022/03/23 09:41:47;;;;;;;28.77;18.77;;;14.90;99.90;;;;;;5091517;28;20209;-71
2022/03/23 09:44:14;;;;;;;25.90;17.80;;;14.70;99.90;;;;;;5092379;28;20659;-70
2022/03/23 09:46:42;;;;;;;26.07;17.87;;;15.00;99.90;;;;;;5092126;28;20202;-71
2022/03/23 09:49:09;;;;;;;26.33;17.90;;;15.10;99.90;;;;;;5091682;28;20209;-71
2022/03/23 09:51:39;;;;;;;28.23;19.60;;;15.10;99.90;;;;;;5091853;28;20216;-71
2022/03/23 09:54:07;;;;;;;25.92;19.45;;;15.30;99.90;;;;;;5091456;28;20278;-71
2022/03/23 09:56:34;;;;;;;26.15;19.67;;;14.90;99.90;;;;;;5091101;28;20299;-70
2022/03/23 09:59:06;;;;;;;25.30;18.55;;;15.20;99.90;;;;;;5091685;28;20201;-71
2022/03/23 10:02:13;;;;;;;28.42;19.30;;;15.90;99.90;;;;;;5092634;28;20206;-71
2022/03/23 10:05:43;;;;;;;27.15;19.58;;;16.20;99.90;;;;;;5095826;28;20678;-71
2022/03/23 10:08:50;;;;;;;26.98;18.95;;;15.80;99.90;;;;;;5094506;28;20201;-71
2022/03/23 10:11:54;;;;;;;27.90;18.15;;;15.50;99.90;;;;;;5095792;28;20205;-71
2022/03/23 10:15:00;;;;;;;24.45;16.92;;;15.10;99.90;;;;;;5094600;28;20697;-71
2022/03/23 10:17:59;;;;;;;26.58;18.05;;;15.40;99.90;;;;;;5095283;28;20656;-71
2022/03/23 10:20:26;;;;;;;25.02;18.17;;;15.30;99.90;;;;;;5094682;28;20682;-70
2022/03/23 10:22:55;;;;;;;25.48;17.73;;;15.40;99.90;;;;;;5095499;28;20709;-71
2022/03/23 10:25:26;;;;;;;27.33;18.15;;;16.20;99.90;;;;;;5095586;28;20197;-71
2022/03/23 10:27:55;;;;;;;27.73;17.73;;;16.80;99.90;;;;;;5093984;28;20205;-71
2022/03/23 10:30:32;;;;;;;26.30;18.10;;;16.50;99.90;;;;;;5094990;28;20208;-71
2022/03/23 10:33:01;;;;;;;25.55;18.27;;;16.00;99.90;;;;;;5094647;28;20211;-71
2022/03/23 10:35:36;;;;;;;23.70;18.05;;;15.90;99.90;;;;;;5094437;28;20233;-71
2022/03/23 10:38:11;;;;;;;28.20;18.27;;;16.00;99.90;;;;;;5094366;28;20658;-71
2022/03/23 10:40:38;;;;;;;27.38;18.88;;;15.90;99.90;;;;;;5094744;28;20209;-71
2022/03/23 10:43:05;;;;;;;26.40;18.77;;;16.60;99.90;;;;;;5094508;28;20221;-71
2022/03/23 10:45:32;;;;;;;25.02;19.55;;;16.60;99.90;;;;;;5094889;28;20209;-71
2022/03/23 10:48:11;;;;;;;25.13;19.20;;;16.60;99.90;;;;;;5094057;28;20224;-71
2022/03/23 10:50:38;;;;;;;24.25;17.98;;;16.50;99.90;;;;;;5094259;28;20659;-71
2022/03/23 10:53:08;;;;;;;28.30;19.63;;;16.40;99.90;;;;;;5095107;28;20782;-71
2022/03/23 10:55:38;;;;;;;25.23;19.42;;;16.30;99.90;;;;;;5094842;28;20263;-71
2022/03/23 10:58:24;;;;;;;25.20;18.77;;;16.20;99.90;;;;;;5093583;28;20365;-71
2022/03/23 11:00:54;;;;;;;24.15;18.48;;;16.50;99.90;;;;;;5094300;28;20564;-71
2022/03/23 11:03:36;;;;;;;25.88;18.30;;;16.30;99.90;;;;;;5094471;28;20216;-71
2022/03/23 11:06:03;;;;;;;24.85;17.95;;;16.70;99.90;;;;;;5094385;28;20198;-71
2022/03/23 11:08:31;;;;;;;23.17;17.83;;;16.80;99.90;;;;;;5094004;28;20209;-71
2022/03/23 11:16:38;;;;;;;26.45;17.98;;;16.80;99.90;;;;;;5058264;28;20248;-71
2022/03/23 11:19:18;;;;;;;26.50;17.98;;;16.60;99.90;;;;;;5075632;28;20209;-71
2022/03/23 11:22:04;;;;;;;25.50;18.63;;;16.90;99.90;;;;;;5093958;28;20719;-71
2022/03/23 11:24:33;;;;;;;23.50;17.20;;;17.10;99.90;;;;;;5093332;28;20201;-71
2022/03/23 11:27:01;;;;;;;26.20;17.50;;;17.10;99.90;;;;;;5093787;28;20567;-71
2022/03/23 11:29:29;;;;;;;22.50;16.80;;;17.20;99.90;;;;;;5093826;28;20535;-71
2022/03/23 11:31:57;;;;;;;23.05;17.23;;;17.50;99.90;;;;;;5093849;28;20233;-71
2022/03/23 11:34:27;;;;;;;22.23;16.58;;;17.60;99.90;;;;;;5093850;28;20209;-76
2022/03/23 11:36:54;;;;;;;24.17;16.40;;;17.30;99.90;;;;;;5094135;28;20205;-75
2022/03/23 11:39:22;;;;;;;22.60;16.33;;;16.90;99.90;;;;;;5093625;28;20217;-75
2022/03/23 11:41:51;;;;;;;22.33;16.73;;;17.10;99.90;;;;;;5093621;28;20244;-75
2022/03/23 11:44:21;;;;;;;21.67;15.82;;;17.10;99.90;;;;;;5092657;28;20197;-75
2022/03/23 11:46:48;;;;;;;22.27;15.85;;;17.40;99.90;;;;;;5093814;28;20301;-75
2022/03/23 11:49:23;;;;;;;23.95;17.08;;;17.30;99.90;;;;;;5092282;28;20288;-75
2022/03/23 11:52:15;;;;;;;23.55;16.92;;;17.30;99.90;;;;;;5093776;28;20284;-75
2022/03/23 11:58:15;;;;;;;25.75;17.17;;;17.60;99.90;;;;;;5093389;28;20643;-75
2022/03/23 12:00:44;;;;;;;23.30;17.20;;;17.60;99.90;;;;;;5093039;28;20617;-75
2022/03/23 12:03:11;;;;;;;23.23;17.05;;;17.30;99.90;;;;;;5093858;28;20197;-76
2022/03/23 12:05:51;;;;;;;20.40;15.00;;;17.70;99.90;;;;;;5093980;28;20198;-76
2022/03/23 12:08:48;;;;;;;20.10;14.68;;;17.30;99.90;;;;;;5092388;28;20202;-75
2022/03/23 12:11:49;;;;;;;23.52;16.10;;;17.50;99.90;;;;;;5084869;28;20252;-75
2022/03/23 12:14:22;;;;;;;21.98;16.02;;;17.50;99.90;;;;;;5092616;28;20234;-75
2022/03/23 12:17:22;;;;;;;21.10;15.88;;;17.60;99.90;;;;;;5093002;28;20226;-75
2022/03/23 12:20:05;;;;;;;24.60;16.50;;;17.70;99.90;;;;;;5092018;28;20208;-75
2022/03/23 12:23:14;;;;;;;23.15;17.27;;;17.80;99.90;;;;;;5093105;28;20214;-75
2022/03/23 12:26:03;;;;;;;23.58;17.75;;;17.60;99.90;;;;;;5092256;28;20254;-76
2022/03/23 12:28:44;;;;;;;23.80;17.23;;;17.50;99.90;;;;;;5092371;28;20209;-76
2022/03/23 12:31:14;;;;;;;23.52;16.38;;;17.60;99.90;;;;;;5092753;28;20245;-76
2022/03/23 12:34:07;;;;;;;21.88;16.08;;;17.50;99.90;;;;;;5092460;28;20202;-76
2022/03/23 12:39:26;;;;;;;19.67;14.43;;;17.80;99.90;;;;;;5092700;28;20292;-76
2022/03/23 12:41:54;;;;;;;21.80;15.75;;;17.90;99.90;;;;;;5092280;28;20201;-76
2022/03/23 12:44:33;;;;;;;21.50;15.57;;;17.70;99.90;;;;;;5092006;28;20201;-76
2022/03/23 12:47:06;;;;;;;20.30;14.95;;;17.80;99.90;;;;;;5092320;28;20711;-76
2022/03/23 12:58:08;;;;;;;21.30;16.08;;;18.60;99.90;;;;;;5091564;28;20232;-76
2022/03/23 13:00:40;;;;;;;22.05;15.10;;;18.40;99.90;;;;;;5092469;28;20292;-76
2022/03/23 13:03:46;;;;;;;20.98;16.50;;;18.40;99.90;;;;;;5091888;28;20664;-76
2022/03/23 13:06:14;;;;;;;20.50;15.32;;;18.10;99.90;;;;;;5092423;28;20208;-76
2022/03/23 13:08:51;;;;;;;21.88;15.73;;;18.20;99.90;;;;;;5092081;28;20207;-76
2022/03/23 13:11:23;;;;;;;20.27;15.65;;;18.40;99.90;;;;;;5092501;28;20201;-76
2022/03/23 13:13:53;;;;;;;20.95;15.65;;;18.50;99.90;;;;;;5091763;28;20206;-76
2022/03/23 13:16:23;;;;;;;23.10;16.05;;;18.10;99.90;;;;;;5091643;28;20225;-76
2022/03/23 13:18:53;;;;;;;20.90;15.65;;;18.30;99.90;;;;;;5090916;28;20204;-76
2022/03/23 13:21:21;;;;;;;21.92;16.60;;;18.10;99.90;;;;;;5091485;28;20231;-76
2022/03/23 13:23:52;;;;;;;20.95;15.85;;;18.00;99.90;;;;;;5092365;28;20201;-76
2022/03/23 13:26:21;;;;;;;21.73;15.43;;;17.90;99.90;;;;;;5091511;28;20194;-76
2022/03/23 13:28:49;;;;;;;24.20;16.77;;;17.90;99.90;;;;;;5092142;28;20567;-76